Time;durP1;ratioP1;P1;durP2;ratioP2;P2;SDS_P1;SDS_P2;PMS_P1;PMS_P2;Temp;Humidity;BMP_temperature;BMP_pressure;BME280_temperature;BME280_humidity;BME280_pressure;Samples;Min_cycle;Max_cycle;Signal;HPM_P1;HPM_P2
2022/10/03 00:02:01;;;;;;;8.83;3.50;;;;;;;7.78;82.53;97350.30;1680678;82;21107;-80
2022/10/03 00:04:50;;;;;;;9.10;3.42;;;;;;;7.81;82.83;97346.26;1707430;82;21067;-79
2022/10/03 00:07:31;;;;;;;5.37;2.90;;;;;;;7.84;83.43;97337.39;1697361;82;21406;-79
2022/10/03 00:10:33;;;;;;;6.92;3.58;;;;;;;7.90;83.85;97331.45;1720201;82;21469;-79
2022/10/03 00:13:30;;;;;;;7.70;2.80;;;;;;;7.97;83.64;97329.97;1687545;82;21035;-79
2022/10/03 00:16:23;;;;;;;6.42;2.85;;;;;;;8.00;83.67;97326.78;1705071;82;20989;-79
2022/10/03 00:18:58;;;;;;;4.05;2.75;;;;;;;8.05;83.71;97330.14;1719461;82;21423;-79
2022/10/03 00:22:02;;;;;;;3.92;2.40;;;;;;;8.07;83.65;97323.50;1707195;82;21023;-79
2022/10/03 00:25:01;;;;;;;4.45;2.70;;;;;;;8.13;83.66;97325.95;1680723;82;21043;-79
2022/10/03 00:27:35;;;;;;;8.35;3.27;;;;;;;8.14;83.58;97321.07;1707532;82;21056;-80
2022/10/03 00:30:23;;;;;;;6.08;2.85;;;;;;;8.15;83.65;97320.16;1711358;83;20999;-81
2022/10/03 00:33:32;;;;;;;3.47;2.72;;;;;;;8.12;83.49;97317.63;1667772;85;21410;-80
2022/10/03 00:36:09;;;;;;;8.50;3.08;;;;;;;8.07;83.77;97318.23;1720822;82;20973;-79
2022/10/03 00:39:02;;;;;;;6.05;2.90;;;;;;;8.02;83.68;97325.42;1679469;84;21006;-79
2022/10/03 00:42:01;;;;;;;6.72;3.00;;;;;;;8.02;83.49;97330.70;1682997;85;21453;-79
2022/10/03 00:44:39;;;;;;;5.72;3.00;;;;;;;8.00;83.53;97329.86;1720529;82;20993;-79
2022/10/03 00:47:46;;;;;;;8.70;3.00;;;;;;;7.99;83.41;97322.42;1679802;84;21117;-78
2022/10/03 00:50:45;;;;;;;7.12;2.77;;;;;;;7.96;83.65;97322.50;1662635;85;21375;-80
2022/10/03 00:53:52;;;;;;;6.72;3.83;;;;;;;7.95;83.40;97316.82;1740108;81;21016;-79
2022/10/03 00:56:24;;;;;;;7.50;5.10;;;;;;;7.94;83.57;97315.09;1715346;82;21127;-79
2022/10/03 00:58:55;;;;;;;15.70;12.47;;;;;;;7.94;83.43;97317.73;1733823;82;21362;-79
2022/10/03 01:01:48;;;;;;;21.20;14.73;;;;;;;7.96;83.56;97317.66;1752663;82;21007;-80
2022/10/03 01:04:41;;;;;;;22.60;15.25;;;;;;;7.97;83.64;97308.39;1718851;82;21412;-79
2022/10/03 01:07:32;;;;;;;24.20;17.42;;;;;;;7.99;83.54;97309.67;1718549;82;21465;-79
2022/10/03 01:10:29;;;;;;;26.27;18.12;;;;;;;8.02;83.45;97303.84;1704662;83;21068;-79
2022/10/03 01:13:48;;;;;;;26.85;18.65;;;;;;;8.07;83.63;97294.48;1704545;83;21117;-79
2022/10/03 01:16:44;;;;;;;21.02;15.03;;;;;;;8.09;83.56;97285.20;1738830;82;21005;-80
2022/10/03 01:19:54;;;;;;;16.30;10.75;;;;;;;8.09;83.24;97286.05;1729812;82;20990;-80
2022/10/03 01:23:01;;;;;;;15.13;9.13;;;;;;;8.06;83.45;97283.52;1692137;82;21017;-79
2022/10/03 01:26:08;;;;;;;10.38;6.55;;;;;;;8.04;83.69;97274.32;1645670;84;21466;-78
2022/10/03 01:31:57;;;;;;;11.45;6.42;;;;;;;8.03;83.52;97279.64;1647525;83;21004;-78
2022/10/03 01:34:56;;;;;;;13.15;8.38;;;;;;;8.07;84.25;97269.41;1706441;82;21400;-79
2022/10/03 01:37:37;;;;;;;14.78;7.05;;;;;;;8.10;83.84;97266.65;1692203;83;21021;-79
2022/10/03 01:40:18;;;;;;;12.85;7.20;;;;;;;8.14;84.25;97263.00;1697840;83;21000;-79
2022/10/03 01:43:18;;;;;;;12.53;6.20;;;;;;;8.15;84.64;97258.60;1690808;83;21335;-80
2022/10/03 01:46:08;;;;;;;10.43;7.22;;;;;;;8.13;84.47;97259.97;1723207;82;21016;-79
2022/10/03 01:49:11;;;;;;;13.40;8.15;;;;;;;8.13;84.17;97257.77;1700473;83;20966;-79
2022/10/03 01:52:09;;;;;;;12.50;7.95;;;;;;;8.14;84.41;97257.73;1697981;82;21060;-79
2022/10/03 01:55:01;;;;;;;10.30;7.55;;;;;;;8.19;85.09;97258.92;1713594;82;21104;-80
2022/10/03 01:57:55;;;;;;;10.10;6.83;;;;;;;8.23;85.06;97251.31;1638495;85;21396;-79
2022/10/03 02:00:25;;;;;;;12.03;6.03;;;;;;;8.27;85.16;97246.80;1663892;84;21018;-78
2022/10/03 02:03:08;;;;;;;9.15;6.15;;;;;;;8.28;84.97;97248.52;1680671;83;21144;-78
2022/10/03 02:06:05;;;;;;;11.73;6.33;;;;;;;8.31;85.16;97241.34;1638711;85;21024;-78
2022/10/03 02:08:53;;;;;;;10.45;4.47;;;;;;;8.40;85.50;97240.65;1651253;84;21391;-78
2022/10/03 02:11:40;;;;;;;6.25;4.17;;;;;;;8.42;84.81;97220.33;1683419;83;20988;-79
2022/10/03 02:14:21;;;;;;;5.83;3.50;;;;;;;8.43;84.96;97215.00;1679986;84;21033;-79
2022/10/03 02:17:23;;;;;;;4.65;3.30;;;;;;;8.51;85.49;97217.86;1641667;84;20979;-79
2022/10/03 02:20:12;;;;;;;5.55;3.62;;;;;;;8.56;85.15;97224.72;1683331;83;21044;-80
2022/10/03 02:22:43;;;;;;;5.90;3.72;;;;;;;8.64;85.16;97227.58;1685591;83;21059;-79
2022/10/03 02:25:52;;;;;;;7.80;4.05;;;;;;;8.69;85.35;97230.44;1686918;83;21040;-79
2022/10/03 02:28:36;;;;;;;6.55;3.70;;;;;;;8.77;85.28;97219.64;1649183;84;21057;-79
2022/10/03 02:31:29;;;;;;;9.95;3.40;;;;;;;8.84;85.38;97227.73;1680907;83;20957;-79
2022/10/03 02:34:26;;;;;;;5.17;3.02;;;;;;;8.94;86.00;97223.45;1638629;85;21019;-79
2022/10/03 02:37:18;;;;;;;3.85;3.22;;;;;;;9.04;85.61;97214.27;1641452;84;21014;-78
2022/10/03 02:40:16;;;;;;;3.45;2.45;;;;;;;9.06;85.65;97200.53;1680510;83;20992;-78
2022/10/03 02:43:06;;;;;;;8.43;3.02;;;;;;;9.11;85.49;97218.41;1704413;82;21051;-80
2022/10/03 02:46:15;;;;;;;3.83;2.20;;;;;;;9.15;85.89;97226.23;1637811;85;21114;-80
2022/10/03 02:49:15;;;;;;;3.83;2.62;;;;;;;9.26;85.76;97224.53;1660542;84;21414;-80
2022/10/03 02:52:09;;;;;;;9.88;2.80;;;;;;;9.28;85.86;97230.61;1686804;83;20996;-80
2022/10/03 02:55:23;;;;;;;4.75;2.15;;;;;;;9.28;85.34;97224.88;1686948;83;21060;-80
2022/10/03 02:58:10;;;;;;;6.75;2.50;;;;;;;9.26;85.56;97218.77;1679570;84;21078;-80
2022/10/03 03:00:57;;;;;;;5.90;2.75;;;;;;;9.24;85.48;97217.98;1680575;83;21012;-80
2022/10/03 03:03:46;;;;;;;4.62;2.70;;;;;;;9.21;85.38;97227.33;1718026;82;21037;-80
2022/10/03 03:06:42;;;;;;;5.33;2.58;;;;;;;9.17;85.16;97225.74;1681905;84;21036;-77
2022/10/03 03:09:35;;;;;;;4.28;2.72;;;;;;;9.13;85.11;97228.94;1664095;83;21039;-79
2022/10/03 03:12:26;;;;;;;8.33;2.85;;;;;;;9.10;85.31;97227.73;1710450;83;21399;-79
2022/10/03 03:15:29;;;;;;;3.67;2.77;;;;;;;9.07;85.37;97226.07;1696876;83;21403;-78
2022/10/03 03:18:08;;;;;;;9.15;3.35;;;;;;;9.05;85.31;97234.50;1684998;83;21009;-79
2022/10/03 03:21:00;;;;;;;5.12;2.77;;;;;;;9.06;85.24;97240.66;1670432;85;21383;-77
2022/10/03 03:23:57;;;;;;;4.30;3.33;;;;;;;9.05;85.24;97241.58;1713520;82;20953;-77
2022/10/03 03:26:49;;;;;;;4.65;2.95;;;;;;;9.06;85.29;97251.23;1680997;83;20960;-77
2022/10/03 03:29:21;;;;;;;4.78;2.85;;;;;;;9.07;86.37;97242.37;1701830;82;21004;-77
2022/10/03 03:32:02;;;;;;;8.58;3.08;;;;;;;9.02;86.60;97230.66;1672757;83;21628;-77
2022/10/03 03:34:41;;;;;;;4.28;2.90;;;;;;;9.01;86.57;97230.23;1662060;84;21083;-79
2022/10/03 03:37:29;;;;;;;7.75;3.05;;;;;;;9.01;86.21;97222.30;1675746;84;20999;-78
2022/10/03 03:40:32;;;;;;;5.10;3.27;;;;;;;9.02;86.46;97220.53;1702865;83;21037;-78
2022/10/03 03:43:16;;;;;;;8.00;2.90;;;;;;;9.04;86.84;97216.05;1696223;83;21039;-79
2022/10/03 03:45:53;;;;;;;5.83;3.02;;;;;;;9.03;86.74;97227.54;1715216;82;21027;-79
2022/10/03 03:48:49;;;;;;;6.60;2.98;;;;;;;8.99;86.24;97225.47;1686148;82;21009;-80
2022/10/03 03:51:55;;;;;;;5.47;2.70;;;;;;;8.96;86.48;97225.13;1641977;85;20979;-80
2022/10/03 03:54:55;;;;;;;8.20;2.95;;;;;;;8.93;87.03;97222.58;1638821;84;21022;-80
2022/10/03 03:57:39;;;;;;;4.20;3.40;;;;;;;8.88;87.65;97219.72;1712638;82;21027;-80
2022/10/03 04:00:17;;;;;;;5.97;3.63;;;;;;;8.84;87.42;97215.84;1685829;82;21048;-80
2022/10/03 04:02:52;;;;;;;6.37;3.25;;;;;;;8.81;87.27;97219.06;1680498;83;21034;-80
2022/10/03 04:05:43;;;;;;;5.87;3.50;;;;;;;8.77;87.73;97227.56;1680913;83;21039;-80
2022/10/03 04:08:39;;;;;;;8.75;4.83;;;;;;;8.73;87.44;97228.58;1637634;85;21442;-80
2022/10/03 04:11:27;;;;;;;8.33;4.10;;;;;;;8.69;87.81;97230.44;1673999;84;21429;-80
2022/10/03 04:14:20;;;;;;;12.63;4.67;;;;;;;8.68;87.69;97234.00;1665125;84;21003;-81
2022/10/03 04:19:52;;;;;;;7.95;3.87;;;;;;;8.69;88.60;97214.59;1639175;85;21381;-82
2022/10/03 04:22:37;;;;;;;5.95;3.60;;;;;;;8.75;89.22;97221.93;1665936;84;21577;-80
2022/10/03 04:25:36;;;;;;;6.30;3.08;;;;;;;8.81;88.98;97229.63;1694010;82;21091;-80
2022/10/03 04:28:39;;;;;;;8.50;3.27;;;;;;;8.84;89.91;97232.14;1654523;84;21067;-80
2022/10/03 04:31:32;;;;;;;5.70;3.60;;;;;;;8.84;90.03;97230.83;1699320;83;20992;-80
2022/10/03 04:34:10;;;;;;;6.67;3.35;;;;;;;8.88;90.36;97234.25;1652739;85;21806;-80
2022/10/03 04:37:02;;;;;;;9.48;3.60;;;;;;;8.90;91.44;97226.67;1638846;84;21444;-80
2022/10/03 04:39:50;;;;;;;12.55;4.87;;;;;;;8.91;90.39;97235.44;1704335;82;20970;-81
2022/10/03 04:42:57;;;;;;;9.73;4.08;;;;;;;8.87;91.31;97237.34;1692596;83;20993;-81
2022/10/03 04:45:41;;;;;;;5.22;3.70;;;;;;;8.82;91.61;97242.80;1668549;84;21060;-81
2022/10/03 04:48:27;;;;;;;7.83;4.03;;;;;;;8.77;92.45;97242.09;1676718;84;22165;-80
2022/10/03 04:51:25;;;;;;;5.53;3.60;;;;;;;8.79;92.10;97252.58;1681650;84;21052;-81
2022/10/03 04:54:14;;;;;;;8.50;4.22;;;;;;;8.79;93.38;97248.63;1684114;83;20969;-81
2022/10/03 04:57:25;;;;;;;8.80;3.72;;;;;;;8.77;92.68;97253.98;1687404;83;21044;-82
2022/10/03 05:00:23;;;;;;;11.85;3.33;;;;;;;8.80;92.76;97255.66;1722031;83;20983;-79
2022/10/03 05:03:20;;;;;;;7.20;4.00;;;;;;;8.83;94.45;97252.89;1671753;84;21018;-81
2022/10/03 05:06:00;;;;;;;5.87;3.98;;;;;;;8.85;94.11;97262.48;1663805;85;20969;-81
2022/10/03 05:08:52;;;;;;;8.68;3.62;;;;;;;8.92;94.44;97254.34;1669676;84;21026;-81
2022/10/03 05:11:57;;;;;;;3.55;2.40;;;;;;;8.98;94.13;97256.31;1673163;84;21768;-80
2022/10/03 05:14:48;;;;;;;3.45;2.52;;;;;;;9.09;95.78;97249.78;1640020;86;21056;-81
2022/10/03 05:17:23;;;;;;;4.12;3.12;;;;;;;9.24;96.13;97247.06;1668691;85;21067;-81
2022/10/03 05:20:22;;;;;;;3.40;2.80;;;;;;;9.36;95.41;97259.84;1689332;84;21008;-81
2022/10/03 05:23:30;;;;;;;4.83;3.77;;;;;;;9.50;95.26;97265.06;1669694;86;21423;-81
2022/10/03 05:26:27;;;;;;;4.05;2.90;;;;;;;9.62;95.21;97276.53;1655767;86;21413;-81
2022/10/03 05:29:12;;;;;;;3.87;2.80;;;;;;;9.73;96.11;97277.45;1681156;85;21016;-81
2022/10/03 05:32:12;;;;;;;3.62;3.30;;;;;;;9.86;95.36;97287.56;1681330;85;21043;-82
2022/10/03 05:35:07;;;;;;;4.40;2.95;;;;;;;9.98;95.14;97292.40;1659090;85;21090;-82
2022/10/03 05:37:59;;;;;;;5.00;3.35;;;;;;;10.08;95.31;97298.18;1675308;84;21024;-81
2022/10/03 05:40:36;;;;;;;4.00;3.05;;;;;;;10.20;95.38;97300.81;1660390;84;21004;-81
2022/10/03 05:43:42;;;;;;;4.53;2.80;;;;;;;10.32;95.95;97299.92;1697411;84;20995;-81
2022/10/03 05:46:39;;;;;;;5.62;2.15;;;;;;;10.38;95.02;97297.05;1668515;85;21088;-81
2022/10/03 05:49:59;;;;;;;3.50;2.17;;;;;;;10.45;95.48;97305.17;1689061;84;20944;-81
2022/10/03 05:53:00;;;;;;;6.12;2.22;;;;;;;10.48;95.15;97302.85;1681886;84;21012;-81
2022/10/03 05:56:15;;;;;;;4.62;2.37;;;;;;;10.49;95.47;97305.90;1685978;84;20997;-80
2022/10/03 05:58:59;;;;;;;3.70;2.10;;;;;;;10.52;95.34;97305.78;1623135;84;21052;-81
2022/10/03 06:02:23;;;;;;;3.25;2.08;;;;;;;10.57;94.96;97306.45;1685324;83;21024;-81
2022/10/03 06:05:04;;;;;;;3.02;2.42;;;;;;;10.60;94.89;97317.39;1717766;83;21015;-81
2022/10/03 06:07:45;;;;;;;4.33;2.42;;;;;;;10.68;94.73;97318.80;1684743;85;21049;-80
2022/10/03 06:10:40;;;;;;;3.50;2.40;;;;;;;10.71;94.35;97319.61;1635533;86;21026;-80
2022/10/03 06:13:39;;;;;;;2.50;2.30;;;;;;;10.74;94.34;97319.02;1704135;83;21020;-81
2022/10/03 06:16:44;;;;;;;4.22;2.30;;;;;;;10.75;94.19;97326.03;1706659;83;21394;-80
2022/10/03 06:19:32;;;;;;;7.00;2.92;;;;;;;10.73;94.01;97329.23;1701483;83;21418;-81
2022/10/03 06:22:19;;;;;;;3.98;2.77;;;;;;;10.74;93.57;97332.27;1697231;83;21015;-80
2022/10/03 06:25:12;;;;;;;8.03;4.72;;;;;;;10.72;92.94;97342.09;1693844;83;21358;-80
2022/10/03 06:28:29;;;;;;;3.47;2.12;;;;;;;10.73;92.64;97333.20;1703042;83;21092;-78
2022/10/03 06:31:30;;;;;;;3.55;2.12;;;;;;;10.73;92.33;97343.80;1642679;87;21046;-78
2022/10/03 06:34:34;;;;;;;3.15;2.15;;;;;;;10.72;92.48;97351.36;1673318;85;21056;-78
2022/10/03 06:37:39;;;;;;;3.75;1.85;;;;;;;10.77;92.42;97346.73;1685603;84;20969;-78
2022/10/03 06:40:31;;;;;;;1.65;1.40;;;;;;;10.89;92.22;97342.72;1642412;86;21521;-78
2022/10/03 06:43:37;;;;;;;1.85;1.75;;;;;;;10.96;91.55;97340.64;1633875;85;21037;-77
2022/10/03 06:46:31;;;;;;;1.67;1.30;;;;;;;10.96;90.95;97341.52;1676085;85;21033;-77
2022/10/03 06:49:18;;;;;;;2.65;1.77;;;;;;;10.94;89.73;97353.12;1703534;83;20952;-77
2022/10/03 06:52:07;;;;;;;2.33;1.40;;;;;;;10.91;90.71;97356.76;1679607;83;20988;-78
2022/10/03 06:55:05;;;;;;;5.20;1.42;;;;;;;10.90;90.50;97357.69;1644080;85;21760;-78
2022/10/03 06:57:59;;;;;;;3.17;1.40;;;;;;;10.90;89.44;97358.14;1664694;85;20986;-78
2022/10/03 07:00:49;;;;;;;3.85;1.70;;;;;;;10.91;89.53;97364.71;1670093;85;21064;-77
2022/10/03 07:03:54;;;;;;;2.92;1.60;;;;;;;10.95;89.25;97352.19;1659149;85;21489;-77
2022/10/03 07:06:42;;;;;;;2.85;1.22;;;;;;;11.00;88.81;97350.69;1698038;83;21082;-78
2022/10/03 07:09:27;;;;;;;3.33;1.52;;;;;;;11.00;88.98;97363.46;1694252;83;21557;-76
2022/10/03 07:12:16;;;;;;;2.95;1.98;;;;;;;10.96;89.41;97365.83;1692306;83;20983;-76
2022/10/03 07:15:06;;;;;;;3.15;1.30;;;;;;;10.96;89.06;97364.06;1641585;84;21039;-76
2022/10/03 07:18:05;;;;;;;2.65;1.50;;;;;;;11.00;88.65;97385.16;1692812;84;21015;-76
2022/10/03 07:20:52;;;;;;;3.62;1.75;;;;;;;11.03;87.86;97373.08;1670136;84;21165;-76
2022/10/03 07:23:27;;;;;;;2.72;1.07;;;;;;;11.15;87.22;97370.38;1670024;84;21048;-76
2022/10/03 07:26:36;;;;;;;3.75;1.70;;;;;;;11.24;86.47;97374.45;1696789;84;21493;-77
2022/10/03 07:29:33;;;;;;;7.85;1.65;;;;;;;11.34;85.21;97373.13;1692025;84;21501;-78
2022/10/03 07:32:18;;;;;;;2.25;1.30;;;;;;;11.39;84.23;97370.27;1699822;83;21048;-77
2022/10/03 07:35:17;;;;;;;;;;;;;;;11.42;84.03;97372.31;1681312;85;21036;-76
2022/10/03 07:41:42;;;;;;;4.78;2.33;;;;;;;11.45;84.16;97377.50;1677004;85;21005;-76
2022/10/03 07:44:49;;;;;;;2.47;1.40;;;;;;;11.52;82.66;97389.17;1656773;85;21049;-76
2022/10/03 07:47:56;;;;;;;5.67;1.60;;;;;;;11.61;82.66;97383.47;1677205;85;21014;-76
2022/10/03 07:50:49;;;;;;;2.42;1.17;;;;;;;11.68;79.25;97388.92;1676386;85;21029;-77
2022/10/03 07:53:39;;;;;;;3.75;1.37;;;;;;;11.76;79.84;97384.59;1653270;85;21108;-78
2022/10/03 07:56:51;;;;;;;3.22;1.12;;;;;;;11.82;79.06;97372.82;1682519;85;20978;-78
2022/10/03 07:59:53;;;;;;;3.00;0.95;;;;;;;11.92;76.61;97395.37;1647307;85;21511;-79
2022/10/03 08:02:46;;;;;;;4.37;0.95;;;;;;;11.96;77.17;97386.83;1647719;85;21047;-81
2022/10/03 08:05:46;;;;;;;2.83;1.00;;;;;;;12.01;76.57;97388.81;1719040;82;21041;-80
2022/10/03 08:08:38;;;;;;;2.00;1.10;;;;;;;12.12;76.80;97389.66;1717040;82;21033;-79
2022/10/03 08:11:31;;;;;;;3.25;0.80;;;;;;;12.22;76.26;97391.44;1691172;84;21383;-79
2022/10/03 08:14:34;;;;;;;1.00;0.80;;;;;;;12.21;72.71;97402.52;1698187;84;21418;-78
2022/10/03 08:17:20;;;;;;;1.72;0.85;;;;;;;12.20;73.49;97390.66;1711969;82;21063;-78
2022/10/03 08:20:18;;;;;;;2.20;0.90;;;;;;;12.19;73.31;97392.89;1713095;83;20964;-79
2022/10/03 08:23:13;;;;;;;2.85;1.20;;;;;;;12.16;72.30;97395.72;1717112;82;20994;-79
2022/10/03 08:26:10;;;;;;;2.60;1.22;;;;;;;12.11;72.74;97391.92;1724816;82;21004;-78
2022/10/03 08:28:51;;;;;;;2.37;1.15;;;;;;;12.17;72.13;97391.67;1713832;82;21009;-78
2022/10/03 08:31:35;;;;;;;3.27;0.82;;;;;;;12.33;72.47;97398.92;1717135;82;21387;-79
2022/10/03 08:34:43;;;;;;;1.95;1.00;;;;;;;12.45;70.84;97389.52;1684404;84;21008;-79
2022/10/03 08:37:35;;;;;;;1.72;0.80;;;;;;;12.47;69.86;97407.57;1687175;84;21470;-79
2022/10/03 08:40:39;;;;;;;3.40;1.32;;;;;;;12.46;68.55;97396.06;1685145;84;20980;-79
2022/10/03 08:43:29;;;;;;;3.10;1.25;;;;;;;12.53;69.79;97398.84;1717699;82;21009;-79
2022/10/03 08:46:10;;;;;;;4.05;1.50;;;;;;;12.72;68.83;97403.75;1717304;82;21049;-79
2022/10/03 08:49:01;;;;;;;2.80;0.95;;;;;;;12.76;67.54;97399.55;1718534;82;21021;-78
2022/10/03 08:52:02;;;;;;;3.30;0.95;;;;;;;12.74;67.19;97398.75;1714870;83;21021;-78
2022/10/03 08:55:24;;;;;;;2.60;0.90;;;;;;;12.67;65.95;97403.98;1714727;82;21044;-78
2022/10/03 08:58:20;;;;;;;4.95;1.50;;;;;;;12.68;67.12;97401.23;1717230;83;21463;-77
2022/10/03 09:01:14;;;;;;;3.47;1.32;;;;;;;12.77;66.05;97414.57;1726701;82;21005;-78
2022/10/03 09:04:32;;;;;;;4.30;1.20;;;;;;;12.88;66.57;97396.74;1691887;83;20948;-78
2022/10/03 09:07:19;;;;;;;1.77;1.10;;;;;;;12.97;65.25;97403.89;1688581;84;21027;-78
2022/10/03 09:10:06;;;;;;;3.45;1.10;;;;;;;13.01;66.88;97389.51;1698127;83;21433;-79
2022/10/03 09:13:02;;;;;;;1.80;0.90;;;;;;;13.19;67.05;97386.40;1698252;83;20980;-78
2022/10/03 09:15:56;;;;;;;3.95;0.85;;;;;;;13.26;65.38;97382.51;1674758;85;21435;-78
2022/10/03 09:18:59;;;;;;;2.45;0.70;;;;;;;13.29;64.54;97388.98;1674843;85;21005;-79
2022/10/03 09:21:49;;;;;;;2.08;1.10;;;;;;;13.41;62.37;97384.84;1676098;85;20958;-78
2022/10/03 09:24:43;;;;;;;1.80;0.90;;;;;;;13.52;63.08;97382.13;1672207;85;21010;-78
2022/10/03 09:27:25;;;;;;;2.12;1.00;;;;;;;13.58;62.48;97389.33;1674636;85;20958;-78
2022/10/03 09:30:23;;;;;;;3.62;1.00;;;;;;;13.68;63.13;97384.86;1687777;85;21033;-78
2022/10/03 09:33:17;;;;;;;1.45;0.88;;;;;;;13.67;62.14;97377.33;1689455;84;21012;-78
2022/10/03 09:36:13;;;;;;;3.60;1.17;;;;;;;13.72;63.17;97378.44;1686458;85;21072;-78
2022/10/03 09:39:04;;;;;;;3.30;0.80;;;;;;;13.79;62.82;97382.98;1690486;85;21014;-78
2022/10/03 09:42:11;;;;;;;1.80;1.10;;;;;;;13.86;63.26;97388.36;1695723;84;21017;-77
2022/10/03 09:45:11;;;;;;;2.87;0.98;;;;;;;13.88;62.21;97385.62;1682013;85;20989;-77
2022/10/03 09:48:03;;;;;;;2.12;1.00;;;;;;;13.86;62.79;97377.25;1680059;85;20997;-77
2022/10/03 09:50:55;;;;;;;2.33;0.90;;;;;;;13.82;60.90;97389.00;1696994;84;20972;-78
2022/10/03 09:54:05;;;;;;;1.32;0.90;;;;;;;13.90;61.24;97375.77;1674450;85;21474;-78
2022/10/03 09:57:28;;;;;;;3.05;0.80;;;;;;;13.99;59.93;97372.58;1657151;86;21001;-78
2022/10/03 10:00:09;;;;;;;1.67;1.02;;;;;;;13.96;58.47;97382.09;1677688;85;21041;-78
2022/10/03 10:03:25;;;;;;;1.10;0.80;;;;;;;13.93;59.69;97371.58;1661528;86;21521;-78
2022/10/03 10:06:12;;;;;;;3.00;1.10;;;;;;;13.90;60.00;97372.61;1690095;84;20989;-78
2022/10/03 10:09:04;;;;;;;2.42;0.88;;;;;;;13.93;60.81;97364.47;1675105;85;21044;-77
2022/10/03 10:11:48;;;;;;;2.02;1.00;;;;;;;14.06;61.26;97365.99;1691682;84;21032;-78
2022/10/03 10:15:05;;;;;;;1.87;0.77;;;;;;;14.24;61.03;97357.92;1676501;85;21088;-77
2022/10/03 10:18:10;;;;;;;1.32;0.90;;;;;;;14.32;58.74;97357.04;1674481;85;21530;-78
2022/10/03 10:21:31;;;;;;;1.25;0.80;;;;;;;14.29;56.75;97358.56;1677173;85;21502;-77
2022/10/03 10:24:26;;;;;;;2.22;1.00;;;;;;;14.20;57.42;97359.06;1700009;83;20996;-78
2022/10/03 10:27:14;;;;;;;2.25;0.93;;;;;;;14.29;57.64;97375.89;1691738;83;20972;-77
2022/10/03 10:30:19;;;;;;;0.88;0.53;;;;;;;14.45;57.23;97355.88;1697337;83;21007;-77
2022/10/03 10:33:28;;;;;;;1.65;0.90;;;;;;;14.93;57.74;97358.16;1703646;83;21103;-77
2022/10/03 10:36:22;;;;;;;1.37;0.70;;;;;;;15.61;53.92;97350.17;1701459;83;20976;-78
2022/10/03 10:39:20;;;;;;;;;;;;;;;15.64;53.30;97341.11;1699815;83;20988;-77
2022/10/03 10:42:21;;;;;;;3.15;0.65;;;;;;;15.76;54.65;97332.36;1674860;85;20100;-77
2022/10/03 10:45:34;;;;;;;2.10;0.82;;;;;;;16.38;51.26;97327.67;1656482;85;20939;-78
2022/10/03 10:48:27;;;;;;;3.75;1.07;;;;;;;17.41;47.86;97344.61;1674521;85;21458;-77
2022/10/03 10:51:07;;;;;;;1.92;1.27;;;;;;;17.95;48.72;97325.78;1659798;86;21017;-78
2022/10/03 10:54:25;;;;;;;5.92;3.60;;;;;;;18.63;50.76;97330.81;1687289;85;21036;-78
2022/10/03 10:57:18;;;;;;;1.87;0.80;;;;;;;18.42;50.21;97323.84;1684504;85;21371;-77
2022/10/03 11:00:13;;;;;;;1.80;0.82;;;;;;;18.19;50.21;97327.72;1693107;84;21430;-77
2022/10/03 11:03:21;;;;;;;1.82;0.70;;;;;;;18.29;50.72;97322.06;1673320;85;21005;-78
2022/10/03 11:06:13;;;;;;;1.87;0.60;;;;;;;19.73;49.82;97332.98;1670173;85;21010;-78
2022/10/03 11:09:27;;;;;;;1.45;0.70;;;;;;;19.16;48.42;97331.00;1674618;85;21409;-77
2022/10/03 11:12:39;;;;;;;1.82;0.80;;;;;;;18.76;48.99;97325.91;1671891;85;21025;-78
2022/10/03 11:15:46;;;;;;;2.72;0.78;;;;;;;18.19;50.22;97321.86;1664788;85;21475;-77
2022/10/03 11:18:58;;;;;;;4.08;0.95;;;;;;;17.65;51.02;97319.77;1673839;85;21089;-78
2022/10/03 11:22:19;;;;;;;1.65;0.70;;;;;;;17.08;51.32;97316.97;1670150;85;21017;-78
2022/10/03 11:25:28;;;;;;;2.10;0.85;;;;;;;18.80;49.95;97314.81;1673061;85;21049;-78
2022/10/03 11:28:33;;;;;;;1.40;0.70;;;;;;;19.73;46.63;97299.39;1666398;85;21435;-79
2022/10/03 11:31:57;;;;;;;4.67;0.95;;;;;;;21.09;42.71;97307.80;1671390;85;20978;-79
2022/10/03 11:34:32;;;;;;;1.77;0.70;;;;;;;21.79;37.70;97290.28;1673936;85;21032;-82
2022/10/03 11:37:40;;;;;;;1.15;0.80;;;;;;;22.42;36.14;97304.59;1671995;85;21050;-81
2022/10/03 11:40:41;;;;;;;1.92;0.72;;;;;;;22.57;34.54;97303.75;1669324;85;21352;-81
2022/10/03 11:43:41;;;;;;;0.90;0.70;;;;;;;21.67;34.97;97302.12;1673474;85;21096;-81
2022/10/03 11:46:33;;;;;;;1.15;0.80;;;;;;;21.97;37.27;97297.25;1714116;83;21064;-80
2022/10/03 11:49:05;;;;;;;1.98;0.70;;;;;;;21.00;37.09;97302.34;1717778;83;21026;-81
2022/10/03 11:51:49;;;;;;;3.10;1.62;;;;;;;20.09;39.42;97308.22;1715696;83;20977;-79
2022/10/03 11:54:39;;;;;;;;;;;;;;;19.56;40.40;97301.54;1716981;83;21066;-79
2022/10/03 11:57:26;;;;;;;1.27;0.70;;;;;;;18.95;41.38;97302.55;1718744;82;20171;-80
2022/10/03 12:00:17;;;;;;;1.42;0.85;;;;;;;18.38;40.84;97307.12;1717339;82;20994;-80
2022/10/03 12:03:09;;;;;;;1.50;0.70;;;;;;;17.81;42.70;97294.11;1715662;82;21416;-81
2022/10/03 12:08:53;;;;;;;0.82;0.72;;;;;;;17.68;43.68;97290.09;1716853;82;21018;-82
2022/10/03 12:11:35;;;;;;;1.55;1.00;;;;;;;17.49;44.98;97289.66;1713686;83;20953;-81
2022/10/03 12:14:19;;;;;;;1.52;0.68;;;;;;;17.08;45.34;97311.14;1716082;83;21429;-77
2022/10/03 12:17:06;;;;;;;0.90;0.57;;;;;;;16.63;45.95;97300.20;1685848;84;20972;-78
2022/10/03 12:19:43;;;;;;;3.05;0.68;;;;;;;16.10;45.83;97314.72;1681700;84;20997;-79
2022/10/03 12:22:40;;;;;;;0.75;0.60;;;;;;;15.63;50.74;97306.88;1716190;83;20985;-77
2022/10/03 12:25:30;;;;;;;0.90;0.72;;;;;;;15.06;52.35;97308.97;1718709;83;20990;-78
2022/10/03 12:28:19;;;;;;;1.32;0.50;;;;;;;14.62;52.82;97309.60;1714685;82;21109;-79
2022/10/03 12:30:59;;;;;;;1.22;0.90;;;;;;;14.36;54.67;97314.61;1721508;82;20973;-79
2022/10/03 12:33:51;;;;;;;1.15;0.90;;;;;;;14.10;58.66;97307.60;1709895;82;21036;-77
2022/10/03 12:36:45;;;;;;;1.55;0.93;;;;;;;13.97;58.61;97315.41;1682098;84;21375;-78
2022/10/03 12:39:53;;;;;;;1.52;0.93;;;;;;;13.85;59.67;97311.61;1709999;82;21437;-78
2022/10/03 12:42:45;;;;;;;1.90;0.90;;;;;;;13.81;58.71;97313.17;1705059;82;21059;-77
2022/10/03 12:45:42;;;;;;;1.52;0.98;;;;;;;13.81;59.29;97313.17;1660608;85;21009;-78
2022/10/03 12:48:36;;;;;;;1.70;0.85;;;;;;;13.77;61.48;97318.27;1709377;82;21024;-78
2022/10/03 12:51:16;;;;;;;2.25;1.05;;;;;;;13.62;62.72;97317.30;1718247;82;21533;-78
2022/10/03 12:54:03;;;;;;;2.55;0.98;;;;;;;13.54;61.90;97325.69;1718864;82;21068;-77
2022/10/03 12:57:08;;;;;;;2.95;1.00;;;;;;;13.50;62.85;97314.81;1716396;82;21460;-78
2022/10/03 12:59:49;;;;;;;1.32;0.80;;;;;;;13.51;66.50;97320.52;1714267;82;20969;-77
2022/10/03 13:02:42;;;;;;;1.70;1.20;;;;;;;13.53;66.15;97309.34;1707275;83;21462;-76
2022/10/03 13:05:26;;;;;;;2.35;1.10;;;;;;;13.64;66.85;97307.41;1711437;84;21016;-77
2022/10/03 13:08:02;;;;;;;1.50;1.25;;;;;;;13.75;68.30;97301.06;1711911;84;21430;-77
2022/10/03 13:10:49;;;;;;;3.17;1.10;;;;;;;13.77;67.26;97299.62;1716655;82;21008;-78
2022/10/03 13:13:52;;;;;;;1.95;1.50;;;;;;;13.70;66.64;97302.63;1718811;82;21063;-77
2022/10/03 13:16:29;;;;;;;2.22;0.80;;;;;;;13.70;66.61;97304.45;1665900;84;21009;-77
2022/10/03 13:19:07;;;;;;;1.72;0.98;;;;;;;13.74;66.82;97309.97;1679363;84;20941;-78
2022/10/03 13:22:05;;;;;;;1.85;1.00;;;;;;;13.72;66.43;97313.20;1692718;83;22136;-77
2022/10/03 13:24:39;;;;;;;2.08;1.05;;;;;;;13.66;66.49;97330.84;1718608;82;21001;-79
2022/10/03 13:27:31;;;;;;;1.45;0.85;;;;;;;13.46;65.91;97330.90;1723951;82;21426;-79
2022/10/03 13:30:05;;;;;;;2.37;1.15;;;;;;;13.39;65.98;97326.84;1709291;83;20999;-78
2022/10/03 13:32:41;;;;;;;5.15;2.47;;;;;;;13.28;66.81;97330.05;1649015;86;21155;-76
2022/10/03 13:38:45;;;;;;;3.22;1.30;;;;;;;13.24;66.72;97347.11;1703733;83;21438;-77
2022/10/03 13:41:26;;;;;;;2.05;0.98;;;;;;;13.38;67.36;97339.77;1726018;82;21009;-77
2022/10/03 13:44:08;;;;;;;1.70;0.68;;;;;;;13.37;66.61;97350.49;1665226;84;21443;-78
2022/10/03 13:46:52;;;;;;;1.17;0.90;;;;;;;13.19;66.20;97341.16;1683653;83;21024;-77
2022/10/03 13:49:34;;;;;;;1.35;0.88;;;;;;;13.06;66.78;97336.48;1659793;84;21476;-77
2022/10/03 13:52:37;;;;;;;1.22;0.70;;;;;;;12.96;66.97;97347.19;1680162;83;21056;-77
2022/10/03 13:55:25;;;;;;;1.90;1.02;;;;;;;12.73;67.19;97336.34;1638572;85;21102;-77
2022/10/03 13:58:25;;;;;;;2.60;0.90;;;;;;;12.58;67.33;97341.47;1664485;84;21418;-77